Flight Track Log - Related Links

Times and Time Zones

All times are in EDT time to prevent confusion due to time zone crossing. See the CTL78 flight status page for this flight to view local times or setup timezone preferences in your user account.

Time Position Orientation Groundspeed Altitude Reporting Facility
EDT Latitude Longitude Course Direction KTS MPH feet Rate Location/Type
Fri 09:49:33 PM 42.2067 -83.5686 211° Southwest 109 125 2,000  Level Cleveland Center
Fri 09:50:40 PM 42.1808 -83.6011 223° Southwest 117 135 2,900 492 Climbing Cleveland Center
Fri 09:51:35 PM 42.1508 -83.6278 213° Southwest 153 176 3,000 52 Climbing Cleveland Center
Fri 09:52:36 PM 42.1075 -83.6172 170° South 164 189 3,000 -50 Level Cleveland Center
Fri 09:53:36 PM 42.0753 -83.5708 133° Southeast 175 201 2,900  Descending Cleveland Center
Fri 09:54:00 PM 42.1143 -83.2025 117° Southeast  Level Estimated
Fri 09:54:37 PM 42.0497 -83.5111 120° Southeast 176 203 3,000  Level Cleveland Center
Fri 09:55:38 PM 42.0325 -83.4458 110° East 180 207 2,900  Descending Cleveland Center
Fri 09:56:39 PM 42.0153 -83.3864 111° Southeast 181 208 3,000 49 Climbing Cleveland Center
Fri 09:57:40 PM 41.9961 -83.3186 111° Southeast 182 209 3,000 209 Level Cleveland Center
Fri 09:58:34 PM 41.9786 -83.2619 113° Southeast 168 193 3,400 574 Climbing Cleveland Center
Fri 09:59:35 PM 41.9633 -83.2053 110° East 161 185 4,100 639 Climbing Cleveland Center
Fri 10:00:36 PM 41.9497 -83.1572 111° Southeast 147 169 4,700 443 Climbing Cleveland Center
Fri 10:01:37 PM 41.9344 -83.1008 110° East 157 181 5,000 129 Climbing Cleveland Center
Fri 10:02:56 PM 41.9111 -83.0247 112° Southeast 171 197 5,000  Level Cleveland Center
Fri 10:04:03 PM 41.8936 -82.9542 108° East 170 196 5,000  Level Cleveland Center
Fri 10:04:57 PM 41.8781 -82.9036 112° Southeast 173 199 5,000 68 Level Cleveland Center
Fri 10:05:31 PM 41.8661 -82.8722 117° Southeast 175 201 5,100  Climbing Cleveland Center
Fri 10:06:56 PM 41.8408 -82.7878 112° Southeast 172 198 5,000  Descending Cleveland Center
Fri 10:07:44 PM 41.8250 -82.7372 113° Southeast 171 197 5,100 55 Climbing Cleveland Center
Fri 10:08:45 PM 41.8094 -82.6808 110° East 170 196 5,100  Level Cleveland Center
Fri 10:09:46 PM 41.7917 -82.6189 111° Southeast 174 200 5,100  Level Cleveland Center
Fri 10:10:40 PM 41.7761 -82.5656 111° Southeast 170 196 5,100  Level Cleveland Center
Fri 10:11:41 PM 41.7583 -82.5067 112° Southeast 168 193 5,100 -52 Level Cleveland Center
Fri 10:12:35 PM 41.7447 -82.4506 108° East 172 198 5,000  Descending Cleveland Center
Fri 10:13:36 PM 41.7267 -82.3917 112° Southeast 169 194 5,100 50 Climbing Cleveland Center
Fri 10:14:36 PM 41.7111 -82.3328 109° East 169 194 5,100 -142 Level Cleveland Center
Fri 10:15:43 PM 41.6911 -82.2683 113° Southeast 177 204 4,800 -422 Descending Cleveland Center
Fri 10:16:44 PM 41.6733 -82.2039 110° East 184 212 4,200 -595 Descending Cleveland Center
Fri 10:17:44 PM 41.6575 -82.1394 108° East 187 215 3,600 -545 Descending Cleveland Center
Fri 10:18:45 PM 41.6439 -82.0753 106° East 182 209 3,100 -347 Descending Cleveland Center
Fri 10:19:45 PM 41.6239 -82.0108 113° Southeast 171 197 2,900 -248 Descending Cleveland Center
Fri 10:20:46 PM 41.6058 -81.9494 111° Southeast 176 203 2,600 -197 Descending Cleveland Center
Fri 10:21:47 PM 41.5856 -81.8906 115° Southeast 163 188 2,500 -248 Descending Cleveland Center
Fri 10:22:47 PM 41.5653 -81.8375 117° Southeast 165 190 2,100 -397 Descending Cleveland Center
Fri 10:23:48 PM 41.5431 -81.7900 122° Southeast 156 180 1,700 -234 Descending Cleveland Center
Fri 10:24:55 PM 41.5164 -81.7478 130° Southeast 114 131 1,600 -375 Descending Cleveland Center
Fri 10:25:56 PM 41.5061 -81.7089 109° East 118 136 900 -689 Descending Cleveland Center

Login

Don't have an account? Register now (free) for customized features, flight alerts, and more!